Time;durP1;ratioP1;P1;durP2;ratioP2;P2;SDS_P1;SDS_P2;PMS_P1;PMS_P2;Temp;Humidity;BMP_temperature;BMP_pressure;BME280_temperature;BME280_humidity;BME280_pressure;Samples;Min_cycle;Max_cycle;Signal;HPM_P1;HPM_P2
2022/01/11 00:01:27;;;;;;;46.95;26.75;;;1.80;44.80;;;;;;5044574;28;20105;-65
2022/01/11 00:03:57;;;;;;;46.10;26.95;;;1.80;45.00;;;;;;5063082;28;20071;-64
2022/01/11 00:06:34;;;;;;;51.45;26.38;;;1.90;45.50;;;;;;5064772;28;20350;-65
2022/01/11 00:09:08;;;;;;;48.22;27.27;;;1.80;45.30;;;;;;5060536;28;20131;-64
2022/01/11 00:11:36;;;;;;;51.85;26.65;;;1.80;45.50;;;;;;5066529;28;20507;-65
2022/01/11 00:14:04;;;;;;;54.70;27.30;;;1.80;45.20;;;;;;5065280;28;20403;-65
2022/01/11 00:16:36;;;;;;;43.83;25.10;;;1.70;45.20;;;;;;5044354;28;20049;-65
2022/01/11 00:19:06;;;;;;;43.97;24.48;;;1.70;45.90;;;;;;5038217;28;20037;-65
2022/01/11 00:21:39;;;;;;;48.53;25.70;;;1.70;45.40;;;;;;5044533;28;20041;-65
2022/01/11 00:26:52;;;;;;;41.55;24.70;;;1.70;45.70;;;;;;5043300;28;20156;-65
2022/01/11 00:29:20;;;;;;;48.30;25.52;;;1.70;46.30;;;;;;5036447;28;20175;-65
2022/01/11 00:31:50;;;;;;;45.28;23.40;;;1.80;47.00;;;;;;5045931;28;20133;-64
2022/01/11 00:34:22;;;;;;;45.28;24.15;;;1.80;45.50;;;;;;5044636;28;20099;-65
2022/01/11 00:36:53;;;;;;;42.70;26.13;;;1.70;46.50;;;;;;5038734;28;20131;-66
2022/01/11 00:39:22;;;;;;;46.60;25.38;;;1.80;46.10;;;;;;5041497;28;20041;-65
2022/01/11 00:41:50;;;;;;;42.72;23.92;;;1.70;45.50;;;;;;5046186;28;20055;-65
2022/01/11 00:44:18;;;;;;;48.95;25.33;;;1.60;45.10;;;;;;5044364;28;20044;-66
2022/01/11 00:46:46;;;;;;;56.03;26.85;;;1.60;45.20;;;;;;5064194;28;20131;-66
2022/01/11 00:49:17;;;;;;;47.50;26.30;;;1.60;45.20;;;;;;5047444;28;20848;-65
2022/01/11 00:51:46;;;;;;;50.13;26.58;;;1.60;45.40;;;;;;5065906;28;20491;-65
2022/01/11 00:54:14;;;;;;;46.58;27.02;;;1.60;45.90;;;;;;5063485;28;20040;-64
2022/01/11 00:56:43;;;;;;;49.08;27.73;;;1.50;45.60;;;;;;5060107;28;20063;-65
2022/01/11 00:59:11;;;;;;;48.92;28.52;;;1.60;46.40;;;;;;5061266;28;20040;-65
2022/01/11 01:01:41;;;;;;;51.55;27.25;;;1.60;46.60;;;;;;5065841;28;20072;-64
2022/01/11 01:04:09;;;;;;;57.13;28.38;;;1.60;46.60;;;;;;5067793;28;20068;-64
2022/01/11 01:06:39;;;;;;;47.72;27.48;;;1.60;46.50;;;;;;5064927;28;20068;-66
2022/01/11 01:09:09;;;;;;;51.78;29.27;;;1.60;46.60;;;;;;5064718;28;20059;-64
2022/01/11 01:11:37;;;;;;;53.60;28.58;;;1.70;46.10;;;;;;5066696;28;20512;-65
2022/01/11 01:14:06;;;;;;;47.55;27.90;;;1.70;46.30;;;;;;5069160;28;20049;-65
2022/01/11 01:16:34;;;;;;;49.85;26.67;;;1.70;46.10;;;;;;5065701;28;20057;-65
2022/01/11 01:19:02;;;;;;;45.00;25.35;;;1.60;43.50;;;;;;5052256;28;20114;-65
2022/01/11 01:21:36;;;;;;;42.80;24.85;;;1.60;45.00;;;;;;5048297;28;20045;-65
2022/01/11 01:24:05;;;;;;;47.90;24.02;;;1.60;44.60;;;;;;5051532;28;20049;-64
2022/01/11 01:26:40;;;;;;;49.83;27.13;;;1.60;44.90;;;;;;5063165;28;20037;-66
2022/01/11 01:29:08;;;;;;;50.50;28.52;;;1.60;45.00;;;;;;5046684;28;20311;-65
2022/01/11 01:31:36;;;;;;;42.30;24.80;;;1.70;44.40;;;;;;5068133;28;20045;-65
2022/01/11 01:34:05;;;;;;;40.35;24.65;;;1.60;43.50;;;;;;5067790;28;20127;-65
2022/01/11 01:36:36;;;;;;;47.50;25.10;;;1.60;44.10;;;;;;5067773;28;20495;-66
2022/01/11 01:39:05;;;;;;;47.55;25.35;;;1.60;44.40;;;;;;5062294;28;20049;-65
2022/01/11 01:41:33;;;;;;;43.42;25.77;;;1.60;44.10;;;;;;5067410;28;20048;-66
2022/01/11 01:44:04;;;;;;;42.25;23.52;;;1.70;44.80;;;;;;5067985;28;20033;-64
2022/01/11 01:46:32;;;;;;;45.10;25.40;;;1.70;45.00;;;;;;5066385;28;20051;-65
2022/01/11 01:49:01;;;;;;;44.42;23.05;;;1.70;44.20;;;;;;5066377;28;20095;-67
2022/01/11 01:51:31;;;;;;;42.10;23.63;;;1.60;44.30;;;;;;5068409;28;20512;-66
2022/01/11 01:53:59;;;;;;;51.05;26.15;;;1.60;44.60;;;;;;5065356;28;20423;-66
2022/01/11 01:56:28;;;;;;;47.40;25.98;;;1.80;44.20;;;;;;5066512;28;20102;-66
2022/01/11 01:58:56;;;;;;;43.22;24.77;;;1.70;44.10;;;;;;5067269;28;20049;-66
2022/01/11 02:01:27;;;;;;;45.25;23.95;;;1.80;44.80;;;;;;5066543;28;20065;-65
2022/01/11 02:03:55;;;;;;;43.95;24.98;;;1.70;43.30;;;;;;5067451;28;20303;-65
2022/01/11 02:06:23;;;;;;;48.38;25.85;;;1.60;43.70;;;;;;5067685;28;20059;-65
2022/01/11 02:08:52;;;;;;;50.05;26.35;;;1.60;43.80;;;;;;5067172;28;20040;-65
2022/01/11 02:11:24;;;;;;;40.95;24.38;;;1.70;44.00;;;;;;5067999;28;20040;-66
2022/01/11 02:13:52;;;;;;;51.15;27.02;;;1.60;44.20;;;;;;5065594;28;20135;-65
2022/01/11 02:16:22;;;;;;;50.88;24.33;;;1.70;44.00;;;;;;5067105;28;20559;-65
2022/01/11 02:18:53;;;;;;;44.97;25.42;;;1.70;44.10;;;;;;5063539;28;20072;-66
2022/01/11 02:21:24;;;;;;;48.75;25.85;;;1.70;43.70;;;;;;5066508;28;20040;-65
2022/01/11 02:23:52;;;;;;;48.22;25.20;;;1.70;44.10;;;;;;5063855;28;20048;-66
2022/01/11 02:26:21;;;;;;;41.85;24.25;;;1.70;44.30;;;;;;5062895;28;20041;-65
2022/01/11 02:28:51;;;;;;;49.75;26.15;;;1.60;44.20;;;;;;5063222;28;20140;-65
2022/01/11 02:31:20;;;;;;;52.53;26.60;;;1.70;44.50;;;;;;5064782;28;20044;-65
2022/01/11 02:33:50;;;;;;;49.55;27.80;;;1.70;44.10;;;;;;5065300;28;20495;-65
2022/01/11 02:36:26;;;;;;;46.40;25.27;;;1.70;44.20;;;;;;5062854;28;20534;-65
2022/01/11 02:38:55;;;;;;;48.72;26.25;;;1.70;44.40;;;;;;5055717;28;20061;-63
2022/01/11 02:41:27;;;;;;;46.72;25.23;;;1.70;44.40;;;;;;5056283;28;20037;-63
2022/01/11 02:43:56;;;;;;;41.78;24.98;;;1.60;44.30;;;;;;5057961;28;20601;-65
2022/01/11 02:46:25;;;;;;;40.45;24.77;;;1.70;44.70;;;;;;5058682;28;20506;-66
2022/01/11 02:48:57;;;;;;;49.58;23.75;;;1.70;45.10;;;;;;5056339;28;20147;-66
2022/01/11 02:51:27;;;;;;;44.08;23.95;;;1.70;44.30;;;;;;5065615;28;20103;-64
2022/01/11 02:53:57;;;;;;;41.58;22.15;;;1.70;44.80;;;;;;5065262;28;20051;-66
2022/01/11 02:56:25;;;;;;;43.92;21.85;;;1.70;44.20;;;;;;5066691;28;20055;-65
2022/01/11 02:58:54;;;;;;;44.55;22.75;;;1.60;43.50;;;;;;5063880;28;20058;-64
2022/01/11 03:01:22;;;;;;;43.17;22.17;;;1.60;44.00;;;;;;5064953;28;20036;-66
2022/01/11 03:03:51;;;;;;;43.80;23.15;;;1.60;43.50;;;;;;5065964;28;20044;-65
2022/01/11 03:06:19;;;;;;;43.72;23.52;;;1.70;44.30;;;;;;5068513;28;20052;-66
2022/01/11 03:08:49;;;;;;;38.97;22.95;;;1.60;43.50;;;;;;5063561;28;20051;-65
2022/01/11 03:11:19;;;;;;;40.40;22.33;;;1.60;43.40;;;;;;5064434;28;20132;-66
2022/01/11 03:13:47;;;;;;;39.47;22.58;;;1.70;43.50;;;;;;5047295;28;20052;-64
2022/01/11 03:16:16;;;;;;;41.53;22.35;;;1.60;43.50;;;;;;5064261;28;20106;-65
2022/01/11 03:18:46;;;;;;;40.17;23.75;;;1.70;44.50;;;;;;5062599;28;20040;-65
2022/01/11 03:21:16;;;;;;;43.05;24.15;;;1.70;43.70;;;;;;5065963;28;20106;-64
2022/01/11 03:23:44;;;;;;;47.88;24.58;;;1.60;44.10;;;;;;5066878;28;20046;-65
2022/01/11 03:26:16;;;;;;;44.17;24.38;;;1.60;43.50;;;;;;5067397;28;20037;-65
2022/01/11 03:28:45;;;;;;;40.90;23.58;;;1.60;44.20;;;;;;5055879;28;20053;-65
2022/01/11 03:31:13;;;;;;;42.47;23.55;;;1.60;44.50;;;;;;5064635;28;20507;-65
2022/01/11 03:33:41;;;;;;;49.53;25.58;;;1.60;43.90;;;;;;5067302;28;20051;-64
2022/01/11 03:36:09;;;;;;;42.60;24.13;;;1.50;45.10;;;;;;5065734;28;20051;-64
2022/01/11 03:38:37;;;;;;;42.50;22.77;;;1.50;45.00;;;;;;5063880;28;20059;-65
2022/01/11 03:41:05;;;;;;;41.30;23.50;;;1.60;45.60;;;;;;5057460;28;20050;-66
2022/01/11 03:43:35;;;;;;;51.03;25.25;;;1.60;45.70;;;;;;5066784;28;20134;-65
2022/01/11 03:46:05;;;;;;;46.33;26.08;;;1.70;45.90;;;;;;5050456;28;20259;-64
2022/01/11 03:48:33;;;;;;;53.78;26.27;;;1.70;46.00;;;;;;5042541;28;20053;-65
2022/01/11 03:51:01;;;;;;;41.15;22.70;;;1.70;45.70;;;;;;5042327;28;20048;-65
2022/01/11 03:53:34;;;;;;;41.58;24.63;;;1.80;46.00;;;;;;5044629;28;20051;-66
2022/01/11 03:56:21;;;;;;;45.58;24.23;;;1.70;45.30;;;;;;5067295;28;20036;-65
2022/01/11 03:58:54;;;;;;;45.08;24.40;;;1.70;45.30;;;;;;5055591;28;20503;-65
2022/01/11 04:01:25;;;;;;;43.05;24.20;;;1.70;45.00;;;;;;5048529;28;20091;-65
2022/01/11 04:03:53;;;;;;;47.95;24.60;;;1.60;45.60;;;;;;5044709;28;20103;-65
2022/01/11 04:06:21;;;;;;;45.17;24.63;;;1.70;45.50;;;;;;5051435;28;20044;-66
2022/01/11 04:08:49;;;;;;;44.22;24.48;;;1.70;45.70;;;;;;5061039;28;20058;-65
2022/01/11 04:11:17;;;;;;;48.47;25.70;;;1.70;45.60;;;;;;5062977;28;20115;-65
2022/01/11 04:13:45;;;;;;;46.40;24.25;;;1.70;45.80;;;;;;5048413;28;20088;-65
2022/01/11 04:16:15;;;;;;;49.70;25.85;;;1.60;45.70;;;;;;5043429;28;20048;-65
2022/01/11 04:18:43;;;;;;;52.60;26.10;;;1.60;45.90;;;;;;5042027;28;20076;-65
2022/01/11 04:21:11;;;;;;;50.53;25.88;;;1.70;46.10;;;;;;5050384;28;20055;-65
2022/01/11 04:23:39;;;;;;;47.55;25.92;;;1.70;46.20;;;;;;5064662;28;20036;-66
2022/01/11 04:26:08;;;;;;;48.47;25.77;;;1.70;45.80;;;;;;5065310;28;20040;-65
2022/01/11 04:28:36;;;;;;;45.53;25.70;;;1.60;45.90;;;;;;5060878;28;20155;-65
2022/01/11 04:31:04;;;;;;;44.25;24.20;;;1.70;45.90;;;;;;5062623;28;20059;-65
2022/01/11 04:33:33;;;;;;;48.90;25.33;;;1.70;45.00;;;;;;5064191;28;20078;-64
2022/01/11 04:36:02;;;;;;;51.58;27.63;;;1.70;45.10;;;;;;5062460;28;20054;-64
2022/01/11 04:38:31;;;;;;;42.55;24.50;;;1.70;44.50;;;;;;5065753;28;20051;-65
2022/01/11 04:41:00;;;;;;;51.72;24.85;;;1.60;45.00;;;;;;5067280;28;20036;-64
2022/01/11 04:43:30;;;;;;;49.80;25.73;;;1.60;44.90;;;;;;5068118;28;20496;-65
2022/01/11 04:45:59;;;;;;;47.33;25.60;;;1.60;45.20;;;;;;5066209;28;20041;-66
2022/01/11 04:48:32;;;;;;;58.35;26.45;;;1.50;45.30;;;;;;5064467;28;20139;-64
2022/01/11 04:51:03;;;;;;;52.13;25.95;;;1.40;45.80;;;;;;5067141;28;20099;-64
2022/01/11 04:53:33;;;;;;;48.25;24.65;;;1.40;46.40;;;;;;5051121;28;20052;-64
2022/01/11 04:56:01;;;;;;;48.42;25.73;;;1.40;46.40;;;;;;5067422;28;20301;-65
2022/01/11 04:58:29;;;;;;;47.00;25.40;;;1.50;46.60;;;;;;5061647;28;20044;-65
2022/01/11 05:00:57;;;;;;;44.25;24.70;;;1.50;45.90;;;;;;5054425;28;20072;-65
2022/01/11 05:03:25;;;;;;;55.08;25.52;;;1.40;46.50;;;;;;5049236;28;20048;-64
2022/01/11 05:05:56;;;;;;;48.25;24.30;;;1.40;46.60;;;;;;5046276;28;20052;-64
2022/01/11 05:08:26;;;;;;;45.92;25.83;;;1.40;46.40;;;;;;5045627;28;20057;-65
2022/01/11 05:10:54;;;;;;;43.33;24.63;;;1.40;47.10;;;;;;5066510;28;20072;-65
2022/01/11 05:13:23;;;;;;;43.05;23.75;;;1.40;46.70;;;;;;5068682;28;20522;-65
2022/01/11 05:15:51;;;;;;;47.10;26.08;;;1.40;46.80;;;;;;5065398;28;20508;-65
2022/01/11 05:18:20;;;;;;;45.10;24.70;;;1.30;47.20;;;;;;5065048;28;20044;-65
2022/01/11 05:20:48;;;;;;;49.28;25.73;;;1.40;47.20;;;;;;5067487;28;20531;-65
2022/01/11 05:23:17;;;;;;;44.35;23.95;;;1.50;46.70;;;;;;5067583;28;20055;-64
2022/01/11 05:25:46;;;;;;;46.80;25.17;;;1.40;46.50;;;;;;5067693;28;20565;-63
2022/01/11 05:28:15;;;;;;;46.42;25.42;;;1.40;47.00;;;;;;5064989;28;20175;-65
2022/01/11 05:30:43;;;;;;;50.40;24.92;;;1.40;47.00;;;;;;5063844;28;20036;-64
2022/01/11 05:33:11;;;;;;;46.70;27.20;;;1.40;47.20;;;;;;5068457;28;20036;-65
2022/01/11 05:35:39;;;;;;;52.00;28.02;;;1.50;47.40;;;;;;5066848;28;20415;-63
2022/01/11 05:38:10;;;;;;;45.45;25.90;;;1.40;47.30;;;;;;5065570;28;20048;-64
2022/01/11 05:40:40;;;;;;;49.35;26.05;;;1.40;47.30;;;;;;5063954;28;20059;-66
2022/01/11 05:43:12;;;;;;;45.67;26.05;;;1.40;47.30;;;;;;5067381;28;20133;-65
2022/01/11 05:45:40;;;;;;;50.53;26.13;;;1.30;47.20;;;;;;5067250;28;20037;-66
2022/01/11 05:48:08;;;;;;;49.20;25.92;;;1.40;47.40;;;;;;5064790;28;20110;-66
2022/01/11 05:50:38;;;;;;;48.25;25.35;;;1.40;47.60;;;;;;5063597;28;20051;-65
2022/01/11 05:53:06;;;;;;;48.83;26.08;;;1.40;47.50;;;;;;5067892;28;20071;-65
2022/01/11 05:55:35;;;;;;;45.50;24.08;;;1.40;47.50;;;;;;5066536;28;20040;-64
2022/01/11 05:58:05;;;;;;;44.35;24.33;;;1.40;47.90;;;;;;5065532;28;20475;-65
2022/01/11 06:00:34;;;;;;;50.45;26.52;;;1.40;48.10;;;;;;5062073;28;20055;-65
2022/01/11 06:03:03;;;;;;;44.50;25.23;;;1.40;47.90;;;;;;5068126;28;20045;-63
2022/01/11 06:05:35;;;;;;;54.53;26.15;;;1.40;48.00;;;;;;5066455;28;20494;-65
2022/01/11 06:08:03;;;;;;;47.10;26.13;;;1.50;48.30;;;;;;5065123;28;20055;-64
2022/01/11 06:10:32;;;;;;;48.58;26.10;;;1.40;48.00;;;;;;5062528;28;20036;-64
2022/01/11 06:13:01;;;;;;;46.13;23.83;;;1.50;48.30;;;;;;5066640;28;20049;-64
2022/01/11 06:15:30;;;;;;;45.92;25.05;;;1.40;47.90;;;;;;5066279;28;20040;-64
2022/01/11 06:18:01;;;;;;;52.75;25.98;;;1.40;48.30;;;;;;5064580;28;20044;-64
2022/01/11 06:20:29;;;;;;;44.00;22.95;;;1.50;48.70;;;;;;5063911;28;20575;-65
2022/01/11 06:22:58;;;;;;;50.78;24.33;;;1.50;48.70;;;;;;5067822;28;20055;-66
2022/01/11 06:25:26;;;;;;;47.13;24.98;;;1.50;48.60;;;;;;5065414;28;20041;-65
2022/01/11 06:27:54;;;;;;;45.95;23.67;;;1.50;48.70;;;;;;5064776;28;20052;-65
2022/01/11 06:30:22;;;;;;;43.08;24.83;;;1.50;48.40;;;;;;5063300;28;20421;-64
2022/01/11 06:32:51;;;;;;;48.17;25.17;;;1.60;48.70;;;;;;5064041;28;20496;-65
2022/01/11 06:35:25;;;;;;;43.97;23.25;;;1.60;48.60;;;;;;5065866;28;20039;-64
2022/01/11 06:37:55;;;;;;;45.10;24.20;;;1.60;48.10;;;;;;5062667;28;20036;-64
2022/01/11 06:40:25;;;;;;;50.83;23.50;;;1.60;48.00;;;;;;5060355;28;20045;-64
2022/01/11 06:42:53;;;;;;;42.15;22.77;;;1.60;47.50;;;;;;5065091;28;20068;-64
2022/01/11 06:45:22;;;;;;;42.58;22.75;;;1.60;47.50;;;;;;5065748;28;20037;-64
2022/01/11 06:47:51;;;;;;;48.97;24.30;;;1.50;47.40;;;;;;5061758;28;20045;-65
2022/01/11 06:50:23;;;;;;;41.30;23.80;;;1.70;48.10;;;;;;5061963;28;20453;-64
2022/01/11 06:52:52;;;;;;;43.55;23.60;;;1.70;47.70;;;;;;5063067;28;20139;-63
2022/01/11 06:55:20;;;;;;;42.13;23.27;;;1.70;47.50;;;;;;5063643;28;20046;-65
2022/01/11 06:57:49;;;;;;;40.20;23.85;;;1.60;47.30;;;;;;5064167;28;20124;-65
2022/01/11 07:00:22;;;;;;;44.00;23.30;;;1.50;47.30;;;;;;5060062;28;20476;-65
2022/01/11 07:02:50;;;;;;;45.03;23.55;;;1.60;47.50;;;;;;5064438;28;20097;-64
2022/01/11 07:05:19;;;;;;;44.08;24.33;;;1.60;47.50;;;;;;5065222;28;20033;-65
2022/01/11 07:07:48;;;;;;;42.20;24.13;;;1.50;47.40;;;;;;5061725;28;20401;-64
2022/01/11 07:10:17;;;;;;;44.95;24.77;;;1.60;47.50;;;;;;5061653;28;20032;-66
2022/01/11 07:12:48;;;;;;;47.15;25.98;;;1.50;47.40;;;;;;5064626;28;20463;-65
2022/01/11 07:15:18;;;;;;;46.83;26.08;;;1.70;47.50;;;;;;5064326;28;20044;-65
2022/01/11 07:17:53;;;;;;;47.80;26.08;;;1.60;47.50;;;;;;5061037;28;20040;-64
2022/01/11 07:20:22;;;;;;;45.97;26.45;;;1.50;47.40;;;;;;5059606;28;20419;-63
2022/01/11 07:22:52;;;;;;;48.45;25.58;;;1.60;47.50;;;;;;5065322;28;20089;-64
2022/01/11 07:25:22;;;;;;;43.65;25.33;;;1.60;47.50;;;;;;5064458;28;20065;-64
2022/01/11 07:27:52;;;;;;;43.83;23.45;;;1.60;47.50;;;;;;5061224;28;20091;-64
2022/01/11 07:30:21;;;;;;;51.53;24.63;;;1.60;47.50;;;;;;5060460;28;20048;-64
2022/01/11 07:32:49;;;;;;;43.75;24.42;;;1.60;47.50;;;;;;5059771;28;20095;-65
2022/01/11 07:35:19;;;;;;;52.63;25.45;;;1.60;47.50;;;;;;5046225;28;20079;-65
2022/01/11 07:37:47;;;;;;;48.28;25.55;;;1.60;47.50;;;;;;5050799;28;20403;-64
2022/01/11 07:40:17;;;;;;;51.35;27.73;;;1.70;47.60;;;;;;5044239;28;20457;-64
2022/01/11 07:42:45;;;;;;;50.05;26.27;;;1.60;47.50;;;;;;5044420;28;20051;-63
2022/01/11 07:45:13;;;;;;;57.78;27.58;;;1.70;47.70;;;;;;5044328;28;20470;-64
2022/01/11 07:47:41;;;;;;;50.17;27.20;;;1.70;47.60;;;;;;5043386;28;20087;-64
2022/01/11 07:50:10;;;;;;;45.05;26.73;;;1.70;47.70;;;;;;5042553;28;20048;-64
2022/01/11 07:52:39;;;;;;;51.15;26.42;;;1.80;48.00;;;;;;5064591;28;20060;-64
2022/01/11 07:55:07;;;;;;;49.08;26.27;;;1.80;47.50;;;;;;5063570;28;20066;-64
2022/01/11 07:57:38;;;;;;;52.03;25.58;;;1.80;47.60;;;;;;5062613;28;20055;-65
2022/01/11 08:00:08;;;;;;;46.50;25.27;;;1.80;47.70;;;;;;5062819;28;20132;-65
2022/01/11 08:02:36;;;;;;;44.80;25.45;;;1.80;47.70;;;;;;5062704;28;20607;-65
2022/01/11 08:05:06;;;;;;;43.83;25.27;;;1.80;47.30;;;;;;5063832;28;20052;-66
2022/01/11 08:07:37;;;;;;;50.17;26.58;;;1.80;47.30;;;;;;5062082;28;20072;-65
2022/01/11 08:10:06;;;;;;;44.10;25.10;;;1.80;47.30;;;;;;5063031;28;20051;-64
2022/01/11 08:12:38;;;;;;;46.65;26.02;;;1.80;47.10;;;;;;5060552;28;20052;-65
2022/01/11 08:15:06;;;;;;;136.57;65.03;;;1.90;47.60;;;;;;5043143;28;20036;-64
2022/01/11 08:17:37;;;;;;;46.63;26.48;;;2.00;47.70;;;;;;5060018;28;20059;-67
2022/01/11 08:20:06;;;;;;;49.80;25.60;;;2.00;45.70;;;;;;5057505;28;20068;-64
2022/01/11 08:22:34;;;;;;;49.03;25.75;;;1.90;46.30;;;;;;5063257;28;20049;-65
2022/01/11 08:25:02;;;;;;;47.55;25.33;;;2.00;46.20;;;;;;5061995;28;20051;-65
2022/01/11 08:27:30;;;;;;;46.30;24.58;;;2.00;45.70;;;;;;5060029;28;20818;-66
2022/01/11 08:29:59;;;;;;;46.22;25.00;;;2.10;46.60;;;;;;5061523;28;20121;-65
2022/01/11 08:32:28;;;;;;;47.03;24.70;;;2.10;45.70;;;;;;5065482;28;20057;-65
2022/01/11 08:34:56;;;;;;;43.47;23.23;;;2.20;45.40;;;;;;5064235;28;20498;-66
2022/01/11 08:37:24;;;;;;;42.30;22.40;;;2.30;44.90;;;;;;5060989;28;20523;-65
2022/01/11 08:39:53;;;;;;;42.05;24.38;;;2.20;44.70;;;;;;5060751;28;20040;-65
2022/01/11 08:42:21;;;;;;;38.95;22.50;;;2.30;44.30;;;;;;5064833;28;20063;-65
2022/01/11 08:44:50;;;;;;;43.90;22.80;;;2.20;43.00;;;;;;5065841;28;20048;-66
2022/01/11 08:47:20;;;;;;;42.55;21.90;;;2.30;42.90;;;;;;5059254;28;20044;-65
2022/01/11 08:49:48;;;;;;;43.17;23.10;;;2.30;42.20;;;;;;5058829;28;20067;-66
2022/01/11 08:52:17;;;;;;;42.78;21.27;;;2.40;41.70;;;;;;5063850;28;20040;-65
2022/01/11 08:54:45;;;;;;;35.13;21.15;;;2.40;40.00;;;;;;5061982;28;20500;-65
2022/01/11 08:57:18;;;;;;;42.17;20.63;;;2.50;40.10;;;;;;5061601;28;20075;-64
2022/01/11 08:59:47;;;;;;;35.38;20.27;;;2.50;40.10;;;;;;5059007;28;20080;-65
2022/01/11 09:02:16;;;;;;;36.40;20.77;;;2.50;38.70;;;;;;5065013;28;20056;-65
2022/01/11 09:04:45;;;;;;;37.30;22.20;;;2.40;39.00;;;;;;5064273;28;20129;-65
2022/01/11 09:07:14;;;;;;;40.95;21.50;;;2.40;40.70;;;;;;5064003;28;20079;-64
2022/01/11 09:09:42;;;;;;;45.05;23.25;;;2.50;41.70;;;;;;5051274;28;20048;-66
2022/01/11 09:12:13;;;;;;;43.35;23.15;;;2.40;41.30;;;;;;5044621;28;20137;-64
2022/01/11 09:14:41;;;;;;;43.53;23.75;;;2.40;40.00;;;;;;5044317;28;20131;-64
2022/01/11 09:17:13;;;;;;;41.65;21.65;;;2.50;40.90;;;;;;5041940;28;20037;-65
2022/01/11 09:19:41;;;;;;;44.88;25.20;;;2.40;40.00;;;;;;5053498;28;20088;-65
2022/01/11 09:22:10;;;;;;;43.45;22.73;;;2.50;40.80;;;;;;5066034;28;20072;-65
2022/01/11 09:24:39;;;;;;;47.65;24.95;;;2.60;40.40;;;;;;5069625;28;20129;-65
2022/01/11 09:27:07;;;;;;;42.17;24.08;;;2.60;39.40;;;;;;5057085;28;20043;-65
2022/01/11 09:29:37;;;;;;;41.15;22.02;;;2.60;38.40;;;;;;5066093;28;20074;-65
2022/01/11 09:32:10;;;;;;;38.83;21.45;;;2.60;38.00;;;;;;5069995;28;20143;-66
2022/01/11 09:34:40;;;;;;;37.55;22.60;;;2.70;38.80;;;;;;5068578;28;20070;-65
2022/01/11 09:37:10;;;;;;;35.83;21.20;;;2.80;38.30;;;;;;5050202;28;20516;-64
2022/01/11 09:39:39;;;;;;;41.05;22.25;;;2.80;37.20;;;;;;5046521;28;20044;-65
2022/01/11 09:42:10;;;;;;;39.30;21.27;;;2.90;37.90;;;;;;5051984;28;20049;-66
2022/01/11 09:44:42;;;;;;;40.88;22.27;;;3.00;36.40;;;;;;5051425;28;20037;-65
2022/01/11 09:47:12;;;;;;;40.22;21.98;;;2.80;33.80;;;;;;5045145;28;20083;-65
2022/01/11 09:49:43;;;;;;;38.45;20.48;;;3.00;36.80;;;;;;5064579;28;20063;-65
2022/01/11 09:52:13;;;;;;;40.50;20.58;;;3.00;33.80;;;;;;5050913;28;20059;-65
2022/01/11 09:54:44;;;;;;;37.35;20.35;;;3.00;34.90;;;;;;5047047;28;20574;-65
2022/01/11 09:57:12;;;;;;;38.80;22.38;;;3.10;34.50;;;;;;5043826;28;20500;-64
2022/01/11 09:59:41;;;;;;;37.60;21.08;;;3.20;33.00;;;;;;5040248;28;20045;-65
2022/01/11 10:02:12;;;;;;;40.78;21.45;;;3.20;32.40;;;;;;5047337;28;20029;-66
2022/01/11 10:04:41;;;;;;;35.80;20.02;;;3.30;30.90;;;;;;5046939;28;20053;-65
2022/01/11 10:07:13;;;;;;;32.88;18.92;;;3.40;30.20;;;;;;5043932;28;20135;-66
2022/01/11 10:09:47;;;;;;;34.13;19.83;;;3.40;29.10;;;;;;5040650;28;20083;-65
2022/01/11 10:12:16;;;;;;;35.83;19.48;;;3.40;29.70;;;;;;5029883;28;20049;-65
2022/01/11 10:14:48;;;;;;;36.40;19.42;;;3.60;28.90;;;;;;5048896;28;20049;-64
2022/01/11 10:17:20;;;;;;;33.00;19.20;;;3.60;27.50;;;;;;5064369;28;20040;-65
2022/01/11 10:19:51;;;;;;;35.72;19.33;;;3.70;28.10;;;;;;5064515;28;20097;-65
2022/01/11 10:22:24;;;;;;;35.72;19.10;;;3.70;27.50;;;;;;5061314;28;20040;-65
2022/01/11 10:24:53;;;;;;;32.00;17.50;;;3.80;26.10;;;;;;5064827;28;20058;-66
2022/01/11 10:27:36;;;;;;;32.63;18.00;;;3.80;25.60;;;;;;5046205;28;20128;-65
2022/01/11 10:30:08;;;;;;;32.47;17.70;;;3.90;24.70;;;;;;5034438;28;20456;-65
2022/01/11 10:32:38;;;;;;;28.67;17.25;;;3.80;23.10;;;;;;5045188;28;20040;-65
2022/01/11 10:35:10;;;;;;;30.45;18.42;;;3.80;24.40;;;;;;5035627;28;20071;-64
2022/01/11 10:37:47;;;;;;;36.00;18.20;;;3.80;24.00;;;;;;5044128;28;20060;-65
2022/01/11 10:40:17;;;;;;;32.22;18.40;;;3.90;24.40;;;;;;5039866;28;20044;-66
2022/01/11 10:42:50;;;;;;;32.88;16.38;;;4.00;24.10;;;;;;5055047;28;20037;-65
2022/01/11 10:45:21;;;;;;;31.98;16.90;;;4.00;23.60;;;;;;5055673;28;20128;-65
2022/01/11 10:47:53;;;;;;;31.92;17.70;;;4.10;22.50;;;;;;5054662;28;20045;-65
2022/01/11 10:50:28;;;;;;;32.60;17.30;;;4.20;22.30;;;;;;5064283;28;20044;-66
2022/01/11 10:53:03;;;;;;;32.63;17.95;;;4.10;21.80;;;;;;5036347;28;20064;-64
2022/01/11 10:55:33;;;;;;;31.83;16.23;;;4.00;22.00;;;;;;5045846;28;20128;-66
2022/01/11 10:58:22;;;;;;;32.83;18.05;;;4.10;21.20;;;;;;5038267;28;20041;-64
2022/01/11 11:00:53;;;;;;;31.65;16.90;;;4.10;20.80;;;;;;5043435;28;20115;-65
2022/01/11 11:03:23;;;;;;;29.40;16.27;;;4.20;19.80;;;;;;5037248;28;20053;-65
2022/01/11 11:05:54;;;;;;;32.55;16.98;;;4.30;19.70;;;;;;5039732;28;20134;-65
2022/01/11 11:08:26;;;;;;;29.08;16.33;;;4.30;18.30;;;;;;5062927;28;20045;-66
2022/01/11 11:11:00;;;;;;;35.65;17.65;;;4.30;17.80;;;;;;5050087;28;20466;-65
2022/01/11 11:13:31;;;;;;;30.73;18.02;;;4.40;18.50;;;;;;5045463;28;20038;-66
2022/01/11 11:16:12;;;;;;;28.38;16.23;;;4.30;19.10;;;;;;5044479;28;20053;-65
2022/01/11 11:18:42;;;;;;;30.85;16.17;;;4.60;17.80;;;;;;5037570;28;20033;-66
2022/01/11 11:21:21;;;;;;;30.20;15.77;;;4.50;16.60;;;;;;5049660;28;20044;-65
2022/01/11 11:23:55;;;;;;;28.77;16.38;;;4.60;16.20;;;;;;5058310;28;20045;-66
2022/01/11 11:26:29;;;;;;;29.17;16.27;;;4.70;16.60;;;;;;5058398;28;20106;-64
2022/01/11 11:28:57;;;;;;;27.80;16.67;;;4.70;15.90;;;;;;5055165;28;20079;-64
2022/01/11 11:31:34;;;;;;;28.45;16.58;;;4.70;15.20;;;;;;5043440;28;20455;-65
2022/01/11 11:34:03;;;;;;;27.15;14.05;;;4.70;14.90;;;;;;5047052;28;20037;-64
2022/01/11 11:36:35;;;;;;;25.20;13.45;;;4.60;13.60;;;;;;5063632;28;20424;-64
2022/01/11 11:39:13;;;;;;;22.45;12.57;;;4.80;12.60;;;;;;5065212;28;20044;-65
2022/01/11 11:41:47;;;;;;;25.92;14.02;;;5.00;11.20;;;;;;5054306;28;20114;-65
2022/01/11 11:44:18;;;;;;;20.80;12.52;;;4.90;10.70;;;;;;5066073;28;20140;-64
2022/01/11 11:46:48;;;;;;;21.77;12.68;;;4.90;10.10;;;;;;5042940;28;20063;-65
2022/01/11 11:49:45;;;;;;;27.08;13.02;;;4.90;9.20;;;;;;5054533;28;20033;-65
2022/01/11 11:52:22;;;;;;;21.80;13.50;;;5.00;9.40;;;;;;5052280;28;20041;-66
2022/01/11 11:54:52;;;;;;;29.10;14.27;;;5.00;10.10;;;;;;5055457;28;20040;-65
2022/01/11 11:57:21;;;;;;;22.02;13.45;;;4.90;10.50;;;;;;5047803;28;20109;-66
2022/01/11 11:59:54;;;;;;;23.88;14.23;;;4.90;10.60;;;;;;5060642;28;20041;-66
2022/01/11 12:02:38;;;;;;;28.27;13.90;;;5.00;11.90;;;;;;5057619;28;20513;-65
2022/01/11 12:05:10;;;;;;;24.30;14.82;;;5.00;11.60;;;;;;5050476;28;20055;-66
2022/01/11 12:07:41;;;;;;;16.23;8.50;;;5.00;12.60;;;;;;5042016;28;20053;-67
2022/01/11 12:10:15;;;;;;;11.95;7.80;;;5.00;2.90;;;;;;5050502;28;20033;-65
2022/01/11 12:12:49;;;;;;;14.20;7.35;;;5.00;1.00;;;;;;5051968;28;20051;-65
2022/01/11 12:15:39;;;;;;;12.38;6.85;;;5.00;1.00;;;;;;5039383;28;20041;-65
2022/01/11 12:18:17;;;;;;;11.30;6.28;;;5.10;1.00;;;;;;5027869;28;20473;-66
2022/01/11 12:20:50;;;;;;;12.35;7.43;;;5.10;1.00;;;;;;5043713;28;20040;-64
2022/01/11 12:23:53;;;;;;;5.28;3.35;;;5.30;1.00;;;;;;5044904;28;20045;-65
2022/01/11 12:26:25;;;;;;;7.10;3.45;;;5.30;1.00;;;;;;5062545;28;20060;-65
2022/01/11 12:29:22;;;;;;;8.57;5.28;;;5.20;1.00;;;;;;5061333;28;20054;-64
2022/01/11 12:31:54;;;;;;;9.63;4.43;;;5.30;1.00;;;;;;5057563;28;20052;-64
2022/01/11 12:34:56;;;;;;;4.53;3.20;;;5.10;1.00;;;;;;5065985;28;20040;-65
2022/01/11 12:37:29;;;;;;;3.97;2.35;;;5.10;1.00;;;;;;5062924;28;20060;-65
2022/01/11 12:40:09;;;;;;;2.58;1.80;;;5.10;1.00;;;;;;5061982;28;20048;-65
2022/01/11 12:42:39;;;;;;;3.30;2.25;;;5.00;1.00;;;;;;5061491;28;20152;-65
2022/01/11 12:47:57;;;;;;;7.60;2.53;;;5.10;1.00;;;;;;5060203;28;20086;-64
2022/01/11 12:50:56;;;;;;;5.20;2.90;;;5.10;1.00;;;;;;5064162;28;20038;-65
2022/01/11 12:53:26;;;;;;;3.90;2.72;;;5.00;1.00;;;;;;5063973;28;20516;-65
2022/01/11 12:55:56;;;;;;;4.40;2.47;;;5.00;1.00;;;;;;5054127;28;20744;-65
2022/01/11 12:58:25;;;;;;;5.90;2.95;;;4.90;1.00;;;;;;5063949;28;20102;-64
2022/01/11 13:00:53;;;;;;;9.02;3.50;;;5.00;1.00;;;;;;5069886;28;20048;-65